Time,TemperatureF,DewpointF,PressureIn,WindDirection,WindDirectionDegrees,WindSpeedMPH,WindSpeedGustMPH,Humidity,HourlyPrecipIn,Conditions,Clouds,dailyrainin,SoftwareType,DateUTC
2013-07-02 00:01:00,68.0,54.0,-100.00,North,-999,0.0,0.0,61,-99.99,,,-99.99,,2013-07-02 07:01:00,
2013-07-02 00:11:00,68.0,54.0,-100.00,North,-999,0.0,0.0,61,-99.99,,,-99.99,,2013-07-02 07:11:00,
2013-07-02 00:22:00,68.0,54.0,-100.00,North,-999,0.0,0.0,61,-99.99,,,-99.99,,2013-07-02 07:22:00,
2013-07-02 01:33:00,66.0,54.0,-100.00,North,-999,0.0,0.0,65,-99.99,,,-99.99,,2013-07-02 08:33:00,
2013-07-02 01:44:00,67.0,53.0,-100.00,North,-999,0.0,0.0,61,-99.99,,,-99.99,,2013-07-02 08:44:00,
2013-07-02 02:01:00,64.0,54.0,-100.00,North,-999,0.0,0.0,70,-99.99,,,-99.99,,2013-07-02 09:01:00,
2013-07-02 02:33:00,64.0,54.0,-100.00,North,-999,0.0,0.0,70,-99.99,,,-99.99,,2013-07-02 09:33:00,
2013-07-02 02:43:00,64.0,54.0,-100.00,North,-999,0.0,0.0,70,-99.99,,,-99.99,,2013-07-02 09:43:00,
2013-07-02 02:52:00,64.0,54.0,-100.00,North,-999,0.0,0.0,70,-99.99,,,-99.99,,2013-07-02 09:52:00,
2013-07-02 03:33:00,63.0,53.0,-100.00,North,-999,0.0,0.0,69,-99.99,,,-99.99,,2013-07-02 10:33:00,
2013-07-02 03:43:00,63.0,53.0,-100.00,North,-999,0.0,0.0,69,-99.99,,,-99.99,,2013-07-02 10:43:00,
2013-07-02 03:52:00,63.0,53.0,-100.00,North,-999,0.0,0.0,69,-99.99,,,-99.99,,2013-07-02 10:52:00,
2013-07-02 04:01:00,65.0,54.0,-100.00,North,-999,0.0,0.0,68,-99.99,,,-99.99,,2013-07-02 11:01:00,
2013-07-02 04:10:00,65.0,53.0,-100.00,North,-999,0.0,0.0,67,-99.99,,,-99.99,,2013-07-02 11:10:00,
2013-07-02 04:11:00,65.0,54.0,-100.00,North,-999,0.0,0.0,68,-99.99,,,-99.99,,2013-07-02 11:11:00,
2013-07-02 04:33:00,64.0,54.0,-100.00,North,-999,0.0,0.0,69,-99.99,,,-99.99,,2013-07-02 11:33:00,
2013-07-02 04:42:00,65.0,53.0,-100.00,North,-999,0.0,0.0,67,-99.99,,,-99.99,,2013-07-02 11:42:00,
2013-07-02 04:52:00,65.0,53.0,-100.00,North,-999,0.0,0.0,67,-99.99,,,-99.99,,2013-07-02 11:52:00,
2013-07-02 05:01:00,65.0,53.0,-100.00,North,-999,0.0,0.0,67,-99.99,,,-99.99,,2013-07-02 12:01:00,
2013-07-02 05:52:00,62.0,54.0,-100.00,North,-999,0.0,0.0,76,-99.99,,,-99.99,,2013-07-02 12:52:00,
2013-07-02 06:01:00,62.0,54.0,-100.00,North,-999,0.0,0.0,76,-99.99,,,-99.99,,2013-07-02 13:01:00,
2013-07-02 06:43:00,62.0,54.0,-100.00,North,-999,0.0,0.0,76,-99.99,,,-99.99,,2013-07-02 13:43:00,
2013-07-02 07:01:00,61.0,55.0,-100.00,North,-999,0.0,0.0,80,-99.99,,,-99.99,,2013-07-02 14:01:00,
2013-07-02 07:33:00,65.0,57.0,-100.00,North,-999,0.0,0.0,76,-99.99,,,-99.99,,2013-07-02 14:33:00,
2013-07-02 07:43:00,65.0,58.0,-100.00,North,-999,0.0,0.0,78,-99.99,,,-99.99,,2013-07-02 14:43:00,
2013-07-02 07:53:00,65.0,58.0,-100.00,North,-999,0.0,0.0,78,-99.99,,,-99.99,,2013-07-02 14:53:00,
2013-07-02 08:02:00,69.0,57.0,-100.00,North,-999,0.0,0.0,65,-99.99,,,-99.99,,2013-07-02 15:02:00,
2013-07-02 08:11:00,72.0,56.0,-100.00,North,-999,0.0,0.0,57,-99.99,,,-99.99,,2013-07-02 15:11:00,
2013-07-02 08:22:00,72.0,56.0,-100.00,North,-999,0.0,0.0,57,-99.99,,,-99.99,,2013-07-02 15:22:00,
2013-07-02 08:33:00,73.0,56.0,-100.00,North,-999,0.0,0.0,56,-99.99,,,-99.99,,2013-07-02 15:33:00,
2013-07-02 08:44:00,73.0,56.0,-100.00,North,-999,0.0,0.0,56,-99.99,,,-99.99,,2013-07-02 15:44:00,
2013-07-02 08:53:00,73.0,56.0,-100.00,North,-999,0.0,0.0,56,-99.99,,,-99.99,,2013-07-02 15:53:00,
2013-07-02 09:01:00,75.0,55.0,-100.00,North,-999,0.0,0.0,50,-99.99,,,-99.99,,2013-07-02 16:01:00,
2013-07-02 09:11:00,75.0,55.0,-100.00,North,-999,0.0,0.0,50,-99.99,,,-99.99,,2013-07-02 16:11:00,
2013-07-02 09:33:00,78.0,54.0,-100.00,North,-999,0.0,0.0,43,-99.99,,,-99.99,,2013-07-02 16:33:00,
2013-07-02 09:43:00,78.0,54.0,-100.00,North,-999,0.0,0.0,43,-99.99,,,-99.99,,2013-07-02 16:43:00,
2013-07-02 09:52:00,78.0,54.0,-100.00,North,-999,0.0,0.0,43,-99.99,,,-99.99,,2013-07-02 16:52:00,
2013-07-02 10:11:00,83.0,51.0,-100.00,North,-999,0.0,0.0,33,-99.99,,,-99.99,,2013-07-02 17:11:00,
2013-07-02 10:33:00,83.0,52.0,-100.00,North,-999,0.0,0.0,34,-99.99,,,-99.99,,2013-07-02 17:33:00,
2013-07-02 10:43:00,84.0,49.0,-100.00,North,-999,0.0,0.0,30,-99.99,,,-99.99,,2013-07-02 17:43:00,
2013-07-02 11:02:00,86.0,50.0,-100.00,North,-999,0.0,0.0,29,-99.99,,,-99.99,,2013-07-02 18:02:00,
2013-07-02 11:22:00,89.0,49.0,-100.00,North,-999,0.0,0.0,26,-99.99,,,-99.99,,2013-07-02 18:22:00,
2013-07-02 11:34:00,88.0,49.0,-100.00,North,-999,0.0,0.0,26,-99.99,,,-99.99,,2013-07-02 18:34:00,
2013-07-02 11:43:00,89.0,48.0,-100.00,North,-999,0.0,0.0,24,-99.99,,,-99.99,,2013-07-02 18:43:00,
2013-07-02 11:53:00,89.0,48.0,-100.00,North,-999,0.0,0.0,24,-99.99,,,-99.99,,2013-07-02 18:53:00,
2013-07-02 12:01:00,91.0,46.0,-100.00,North,-999,0.0,0.0,21,-99.99,,,-99.99,,2013-07-02 19:01:00,
2013-07-02 12:11:00,91.0,46.0,-100.00,North,-999,0.0,0.0,21,-99.99,,,-99.99,,2013-07-02 19:11:00,
2013-07-02 12:34:00,94.0,42.0,-100.00,North,-999,0.0,0.0,17,-99.99,,,-99.99,,2013-07-02 19:34:00,
2013-07-02 12:43:00,94.0,42.0,-100.00,North,-999,0.0,0.0,17,-99.99,,,-99.99,,2013-07-02 19:43:00,
2013-07-02 13:01:00,95.0,43.0,-100.00,North,-999,0.0,0.0,17,-99.99,,,-99.99,,2013-07-02 20:01:00,
2013-07-02 13:11:00,95.0,43.0,-100.00,North,-999,0.0,0.0,17,-99.99,,,-99.99,,2013-07-02 20:11:00,
2013-07-02 13:33:00,96.0,39.0,-100.00,North,-999,0.0,0.0,14,-99.99,,,-99.99,,2013-07-02 20:33:00,
2013-07-02 13:43:00,98.0,42.0,-100.00,North,-999,0.0,0.0,15,-99.99,,,-99.99,,2013-07-02 20:43:00,
2013-07-02 13:52:00,98.0,42.0,-100.00,North,-999,0.0,0.0,15,-99.99,,,-99.99,,2013-07-02 20:52:00,
2013-07-02 14:02:00,98.0,42.0,-100.00,North,-999,0.0,0.0,15,-99.99,,,-99.99,,2013-07-02 21:02:00,
2013-07-02 14:11:00,98.0,42.0,-100.00,North,-999,0.0,0.0,15,-99.99,,,-99.99,,2013-07-02 21:11:00,
2013-07-02 15:33:00,86.0,51.0,-100.00,South,181,8.0,17.0,30,-99.99,,,-99.99,,2013-07-02 22:33:00,
2013-07-02 15:43:00,86.0,51.0,-100.00,South,181,8.0,17.0,30,-99.99,,,-99.99,,2013-07-02 22:43:00,
2013-07-02 16:52:00,81.0,48.0,-100.00,East,92,13.0,26.0,30,-99.99,,,-99.99,,2013-07-02 23:52:00,
2013-07-02 17:01:00,81.0,48.0,-100.00,East,92,13.0,26.0,30,-99.99,,,-99.99,,2013-07-03 00:01:00,
2013-07-02 17:22:00,78.0,52.0,-100.00,SE,145,15.0,26.0,40,-99.99,,,-99.99,,2013-07-03 00:22:00,
2013-07-02 17:33:00,82.0,45.0,-100.00,SE,145,15.0,26.0,28,-99.99,,,-99.99,,2013-07-03 00:33:00,
2013-07-02 17:44:00,79.0,48.0,-100.00,South,178,14.0,22.0,33,-99.99,,,-99.99,,2013-07-03 00:44:00,
2013-07-02 17:52:00,79.0,47.0,-100.00,South,178,14.0,22.0,33,-99.99,,,-99.99,,2013-07-03 00:52:00,
2013-07-02 18:01:00,77.0,51.0,-100.00,SSE,155,9.0,13.0,40,-99.99,,,-99.99,,2013-07-03 01:01:00,
2013-07-02 18:11:00,77.0,51.0,-100.00,SSE,155,9.0,13.0,40,-99.99,,,-99.99,,2013-07-03 01:11:00,
2013-07-02 18:33:00,76.0,53.0,-100.00,SE,140,3.0,8.0,45,-99.99,,,-99.99,,2013-07-03 01:33:00,
2013-07-02 18:42:00,76.0,53.0,-100.00,SE,140,3.0,8.0,45,-99.99,,,-99.99,,2013-07-03 01:42:00,
2013-07-02 18:53:00,78.0,51.0,-100.00,NNE,17,9.0,14.0,40,-99.99,,,-99.99,,2013-07-03 01:53:00,
2013-07-02 19:02:00,78.0,52.0,-100.00,NNE,17,9.0,14.0,40,-99.99,,,-99.99,,2013-07-03 02:02:00,
2013-07-02 19:12:00,78.0,53.0,-100.00,NE,42,5.0,9.0,42,-99.99,,,-99.99,,2013-07-03 02:12:00,
2013-07-02 19:32:00,75.0,52.0,-100.00,South,169,7.0,11.0,44,-99.99,,,-99.99,,2013-07-03 02:32:00,
2013-07-02 19:35:00,77.0,53.0,-100.00,SE,134,8.0,13.0,44,-99.99,,,-99.99,,2013-07-03 02:35:00,
2013-07-02 19:43:00,78.0,52.0,-100.00,ESE,119,7.0,10.0,40,-99.99,,,-99.99,,2013-07-03 02:43:00,
2013-07-02 19:53:00,78.0,52.0,-100.00,ESE,119,7.0,10.0,40,-99.99,,,-99.99,,2013-07-03 02:53:00,
2013-07-02 20:02:00,75.0,52.0,-100.00,South,169,7.0,11.0,44,-99.99,,,-99.99,,2013-07-03 03:02:00,
2013-07-02 20:12:00,75.0,52.0,-100.00,South,169,7.0,11.0,44,-99.99,,,-99.99,,2013-07-03 03:12:00,
2013-07-02 20:25:00,75.0,52.0,-100.00,South,169,7.0,11.0,44,-99.99,,,-99.99,,2013-07-03 03:25:00,
2013-07-02 21:01:00,75.0,52.0,-100.00,SSE,155,5.0,8.0,45,-99.99,,,-99.99,,2013-07-03 04:01:00,
2013-07-02 21:11:00,75.0,52.0,-100.00,SSE,155,5.0,8.0,45,-99.99,,,-99.99,,2013-07-03 04:11:00,
2013-07-02 21:22:00,75.0,52.0,-100.00,SSE,155,5.0,8.0,45,-99.99,,,-99.99,,2013-07-03 04:22:00,
2013-07-02 21:42:00,71.0,51.0,-100.00,ESE,112,0.0,1.0,48,-99.99,,,-99.99,,2013-07-03 04:42:00,
2013-07-02 22:23:00,71.0,51.0,-100.00,ESE,112,0.0,1.0,48,-99.99,,,-99.99,,2013-07-03 05:23:00,
2013-07-02 22:34:00,71.0,51.0,-100.00,ESE,112,0.0,1.0,48,-99.99,,,-99.99,,2013-07-03 05:34:00,
2013-07-02 22:59:00,68.0,51.0,-100.00,North,-999,0.0,0.0,54,-99.99,,,-99.99,,2013-07-03 05:59:00,
2013-07-02 23:44:00,67.0,54.0,-100.00,NE,40,2.0,5.0,62,-99.99,,,-99.99,,2013-07-03 06:44:00,
2013-07-02 23:54:00,67.0,54.0,-100.00,NE,40,2.0,5.0,62,-99.99,,,-99.99,,2013-07-03 06:54:00,